createdAt,value
2022-09-18T00:01:54.295Z,93.20
2022-09-18T00:04:43.640Z,93.20
2022-09-18T00:07:32.986Z,93.50
2022-09-18T00:10:24.145Z,93.60
2022-09-18T00:13:13.583Z,94.00
2022-09-18T00:16:03.511Z,93.80
2022-09-18T00:18:53.464Z,93.80
2022-09-18T00:21:44.417Z,93.80
2022-09-18T00:24:33.788Z,94.00
2022-09-18T00:27:24.439Z,94.00
2022-09-18T00:30:14.458Z,94.60
2022-09-18T00:33:04.170Z,94.40
2022-09-18T00:35:53.530Z,94.50
2022-09-18T00:38:43.603Z,94.70
2022-09-18T00:41:36.236Z,94.90
2022-09-18T00:44:48.139Z,95.30
2022-09-18T00:47:42.302Z,96.70
2022-09-18T00:50:31.858Z,95.20
2022-09-18T00:53:21.630Z,94.90
2022-09-18T00:56:14.439Z,95.20
2022-09-18T00:59:04.657Z,95.70
2022-09-18T01:01:56.820Z,95.50
2022-09-18T01:04:46.652Z,95.90
2022-09-18T01:08:04.293Z,95.60
2022-09-18T01:11:08.931Z,96.80
2022-09-18T01:14:13.797Z,96.70
2022-09-18T01:17:15.523Z,96.80
2022-09-18T01:20:49.993Z,96.90
2022-09-18T01:24:50.882Z,97.70
2022-09-18T01:28:10.421Z,97.50
2022-09-18T01:31:09.693Z,96.70
2022-09-18T01:34:04.660Z,96.50
2022-09-18T01:37:02.155Z,96.40
2022-09-18T01:39:58.869Z,96.70
2022-09-18T01:42:51.487Z,96.90
2022-09-18T01:45:46.149Z,97.10
2022-09-18T01:48:44.104Z,97.60
2022-09-18T01:51:38.457Z,97.30
2022-09-18T01:54:33.800Z,97.50
2022-09-18T01:57:27.181Z,97.40
2022-09-18T02:00:20.060Z,97.30
2022-09-18T02:03:15.902Z,97.60
2022-09-18T02:06:10.064Z,97.90
2022-09-18T02:09:02.470Z,97.90
2022-09-18T02:11:56.521Z,97.50
2022-09-18T02:14:48.838Z,97.90
2022-09-18T02:17:57.622Z,97.80
2022-09-18T02:20:59.166Z,98.40
2022-09-18T02:23:49.802Z,97.80
2022-09-18T02:26:40.816Z,97.90
2022-09-18T02:29:30.702Z,98.00
2022-09-18T02:32:20.525Z,98.00
2022-09-18T02:35:12.269Z,98.10
2022-09-18T02:38:08.072Z,98.40
2022-09-18T02:41:06.261Z,98.50
2022-09-18T02:44:01.166Z,99.00
2022-09-18T02:47:05.497Z,98.60
2022-09-18T02:50:06.263Z,99.00
2022-09-18T02:53:05.368Z,99.00
2022-09-18T02:56:02.503Z,99.40
2022-09-18T02:58:58.914Z,99.10
2022-09-18T03:01:49.936Z,99.00
2022-09-18T03:04:41.390Z,98.70
2022-09-18T03:07:39.480Z,98.70
2022-09-18T03:10:31.341Z,98.90
2022-09-18T03:13:20.707Z,99.10
2022-09-18T03:16:11.000Z,99.10
2022-09-18T03:19:00.639Z,99.20
2022-09-18T03:21:51.179Z,99.30
2022-09-18T03:24:44.753Z,99.40
2022-09-18T03:27:37.394Z,99.50
2022-09-18T03:30:27.000Z,99.80
2022-09-18T03:33:16.572Z,99.50
2022-09-18T03:36:07.099Z,99.50
2022-09-18T03:38:58.235Z,99.60
2022-09-18T03:41:47.726Z,99.90
2022-09-18T03:44:38.462Z,99.90
2022-09-18T03:47:37.606Z,99.90
2022-09-18T03:50:29.960Z,99.90
2022-09-18T03:53:19.471Z,99.90
2022-09-18T03:56:18.319Z,99.90
2022-09-18T03:59:25.840Z,99.90
2022-09-18T04:02:28.989Z,99.90
2022-09-18T04:05:37.238Z,99.90
2022-09-18T04:08:44.978Z,99.90
2022-09-18T04:11:54.944Z,99.90
2022-09-18T04:14:44.254Z,99.90
2022-09-18T04:17:34.955Z,99.90
2022-09-18T04:20:26.048Z,99.90
2022-09-18T04:23:15.447Z,99.90
2022-09-18T04:26:09.369Z,99.90
2022-09-18T04:29:03.851Z,99.90
2022-09-18T04:31:53.851Z,99.90
2022-09-18T04:34:46.348Z,99.90
2022-09-18T04:37:35.758Z,99.90
2022-09-18T04:40:25.598Z,99.90
2022-09-18T04:43:15.013Z,99.90
2022-09-18T04:46:06.490Z,99.90
2022-09-18T04:48:55.874Z,99.90
2022-09-18T04:51:49.467Z,99.90
2022-09-18T04:54:38.817Z,99.90
2022-09-18T04:57:29.845Z,99.90
2022-09-18T05:00:19.484Z,99.90
2022-09-18T05:03:10.005Z,99.90
2022-09-18T05:06:01.688Z,99.90
2022-09-18T05:08:54.190Z,99.90
2022-09-18T05:11:46.714Z,99.90
2022-09-18T05:14:36.133Z,99.90
2022-09-18T05:17:28.023Z,99.90
2022-09-18T05:20:27.382Z,99.90
2022-09-18T05:23:18.573Z,99.90
2022-09-18T05:26:09.254Z,99.90
2022-09-18T05:28:59.978Z,99.90
2022-09-18T05:31:49.819Z,99.90
2022-09-18T05:34:39.216Z,99.90
2022-09-18T05:37:29.355Z,99.90
2022-09-18T05:40:18.930Z,99.90
2022-09-18T05:43:10.713Z,99.90
2022-09-18T05:46:03.114Z,99.90
2022-09-18T05:49:06.704Z,99.90
2022-09-18T05:51:56.053Z,99.90
2022-09-18T05:54:45.444Z,99.90
2022-09-18T05:57:34.846Z,99.90
2022-09-18T06:00:27.047Z,99.90
2022-09-18T06:03:23.758Z,99.90
2022-09-18T06:06:13.516Z,99.90
2022-09-18T06:09:02.939Z,99.90
2022-09-18T06:11:52.514Z,99.90
2022-09-18T06:14:42.000Z,99.90
2022-09-18T06:17:32.751Z,99.90
2022-09-18T06:20:24.570Z,99.90
2022-09-18T06:23:13.843Z,99.90
2022-09-18T06:26:15.267Z,99.90
2022-09-18T06:29:05.510Z,99.90
2022-09-18T06:32:02.325Z,99.90
2022-09-18T06:34:53.164Z,99.90
2022-09-18T06:37:42.558Z,99.90
2022-09-18T06:40:41.585Z,99.90
2022-09-18T06:43:39.229Z,99.90
2022-09-18T06:46:49.512Z,99.90
2022-09-18T06:49:47.015Z,99.90
2022-09-18T06:52:40.287Z,99.90
2022-09-18T06:55:29.685Z,99.90
2022-09-18T06:58:21.134Z,99.90
2022-09-18T07:01:14.049Z,99.90
2022-09-18T07:04:08.278Z,99.90
2022-09-18T07:07:03.516Z,99.90
2022-09-18T07:09:54.279Z,99.90
2022-09-18T07:12:48.863Z,99.90
2022-09-18T07:15:40.054Z,99.90
2022-09-18T07:18:30.183Z,99.90
2022-09-18T07:21:19.727Z,99.90
2022-09-18T07:24:09.635Z,99.90
2022-09-18T07:27:00.833Z,99.90
2022-09-18T07:29:50.152Z,99.90
2022-09-18T07:32:41.476Z,99.90
2022-09-18T07:35:36.595Z,99.90
2022-09-18T07:38:26.606Z,99.90
2022-09-18T07:41:18.853Z,99.90
2022-09-18T07:44:09.648Z,99.90
2022-09-18T07:46:59.084Z,99.90
2022-09-18T07:49:48.949Z,99.90
2022-09-18T07:52:38.434Z,99.90
2022-09-18T07:55:33.404Z,99.90
2022-09-18T07:58:24.221Z,99.90
2022-09-18T08:01:20.829Z,99.90
2022-09-18T08:04:14.442Z,99.90
2022-09-18T08:07:31.207Z,99.90
2022-09-18T08:10:42.233Z,99.90
2022-09-18T08:13:49.508Z,99.90
2022-09-18T08:17:06.524Z,99.90
2022-09-18T08:20:01.760Z,99.90
2022-09-18T08:23:11.093Z,99.90
2022-09-18T08:26:02.672Z,99.90
2022-09-18T08:28:52.025Z,99.80
2022-09-18T08:31:41.677Z,99.90
2022-09-18T08:34:34.046Z,99.90
2022-09-18T08:37:23.640Z,99.90
2022-09-18T08:40:58.201Z,99.90
2022-09-18T08:43:59.608Z,99.90
2022-09-18T08:46:54.680Z,99.90
2022-09-18T08:49:52.189Z,99.90
2022-09-18T08:52:49.981Z,99.90
2022-09-18T08:55:59.478Z,99.90
2022-09-18T08:59:18.112Z,99.90
2022-09-18T09:02:38.967Z,98.20
2022-09-18T09:05:36.241Z,97.40
2022-09-18T09:08:50.798Z,97.20
2022-09-18T09:11:51.184Z,96.10
2022-09-18T09:15:01.642Z,95.20
2022-09-18T09:18:07.710Z,95.10
2022-09-18T09:21:05.255Z,97.30
2022-09-18T09:24:17.265Z,97.70
2022-09-18T09:27:40.011Z,96.60
2022-09-18T09:30:38.093Z,95.90
2022-09-18T09:33:54.369Z,94.90
2022-09-18T09:37:04.936Z,93.60
2022-09-18T09:40:00.584Z,93.50
2022-09-18T09:42:59.319Z,93.80
2022-09-18T09:45:52.784Z,93.40
2022-09-18T09:48:51.630Z,93.20
2022-09-18T09:51:52.036Z,92.10
2022-09-18T09:54:44.081Z,91.30
2022-09-18T09:57:43.279Z,90.80
2022-09-18T10:00:40.079Z,89.70
2022-09-18T10:03:43.358Z,89.80
2022-09-18T10:06:45.694Z,90.30
2022-09-18T10:09:49.689Z,90.20
2022-09-18T10:12:52.089Z,90.20
2022-09-18T10:15:45.674Z,89.10
2022-09-18T10:18:45.097Z,89.60
2022-09-18T10:21:37.451Z,88.80
2022-09-18T10:24:39.380Z,88.50
2022-09-18T10:27:33.343Z,89.50
2022-09-18T10:30:22.696Z,91.60
2022-09-18T10:33:34.072Z,92.70
2022-09-18T10:36:33.767Z,92.30
2022-09-18T10:39:31.738Z,92.40
2022-09-18T10:42:30.240Z,92.00
2022-09-18T10:45:41.608Z,90.80
2022-09-18T10:48:45.555Z,89.70
2022-09-18T10:51:35.391Z,88.00
2022-09-18T10:54:29.826Z,87.10
2022-09-18T10:57:29.319Z,87.80
2022-09-18T11:00:50.767Z,91.50
2022-09-18T11:03:43.499Z,93.60
2022-09-18T11:06:39.298Z,98.00
2022-09-18T11:09:42.412Z,99.90
2022-09-18T11:12:36.234Z,99.90
2022-09-18T11:15:30.078Z,99.90
2022-09-18T11:18:21.436Z,99.90
2022-09-18T11:21:10.919Z,98.60
2022-09-18T11:24:05.902Z,96.70
2022-09-18T11:26:57.528Z,92.80
2022-09-18T11:29:48.883Z,91.30
2022-09-18T11:32:40.494Z,88.60
2022-09-18T11:35:33.182Z,86.00
2022-09-18T11:38:22.703Z,84.50
2022-09-18T11:41:14.787Z,84.90
2022-09-18T11:44:19.865Z,84.10
2022-09-18T11:47:37.267Z,82.00
2022-09-18T11:50:33.900Z,81.00
2022-09-18T11:53:27.881Z,81.30
2022-09-18T11:56:25.904Z,80.40
2022-09-18T11:59:25.593Z,79.30
2022-09-18T12:02:22.531Z,78.10
2022-09-18T12:05:21.376Z,77.50
2022-09-18T12:08:21.476Z,77.10
2022-09-18T12:11:25.985Z,77.20
2022-09-18T12:14:20.266Z,77.70
2022-09-18T12:17:36.134Z,78.50
2022-09-18T12:20:32.770Z,77.90
2022-09-18T12:23:27.526Z,77.30
2022-09-18T12:26:28.320Z,77.30
2022-09-18T12:29:35.622Z,76.20
2022-09-18T12:32:51.351Z,76.40
2022-09-18T12:36:02.508Z,76.20
2022-09-18T12:39:12.785Z,76.30
2022-09-18T12:42:14.703Z,76.40
2022-09-18T12:45:46.005Z,76.70
2022-09-18T12:48:55.503Z,77.40
2022-09-18T12:51:47.982Z,78.20
2022-09-18T12:54:58.080Z,79.00
2022-09-18T12:58:03.117Z,79.50
2022-09-18T13:00:54.087Z,78.60
2022-09-18T13:03:45.248Z,79.10
2022-09-18T13:06:42.543Z,79.90
2022-09-18T13:09:39.266Z,80.10
2022-09-18T13:12:37.753Z,79.90
2022-09-18T13:15:31.607Z,80.00
2022-09-18T13:18:33.512Z,80.30
2022-09-18T13:21:30.609Z,80.10
2022-09-18T13:24:24.087Z,80.00
2022-09-18T13:27:17.043Z,80.00
2022-09-18T13:30:25.679Z,79.60
2022-09-18T13:33:25.411Z,78.90
2022-09-18T13:36:25.788Z,78.30
2022-09-18T13:39:20.577Z,77.90
2022-09-18T13:42:09.998Z,77.80
2022-09-18T13:45:07.269Z,78.00
2022-09-18T13:48:05.580Z,77.90
2022-09-18T13:50:59.242Z,77.90
2022-09-18T13:53:48.632Z,78.00
2022-09-18T13:57:32.210Z,77.90
2022-09-18T14:00:40.961Z,77.40
2022-09-18T14:03:41.825Z,77.50
2022-09-18T14:06:49.096Z,77.80
2022-09-18T14:09:54.673Z,77.40
2022-09-18T14:13:04.526Z,77.30
2022-09-18T14:16:01.680Z,77.50
2022-09-18T14:19:05.106Z,77.20
2022-09-18T14:21:54.702Z,77.10
2022-09-18T14:25:03.520Z,77.10
2022-09-18T14:27:57.138Z,77.30
2022-09-18T14:31:14.124Z,77.00
2022-09-18T14:34:17.362Z,76.90
2022-09-18T14:37:27.403Z,77.00
2022-09-18T14:40:22.585Z,77.30
2022-09-18T14:43:17.423Z,77.10
2022-09-18T14:46:07.226Z,77.10
2022-09-18T14:48:57.057Z,76.90
2022-09-18T14:52:03.257Z,77.10
2022-09-18T14:54:56.684Z,77.10
2022-09-18T14:57:49.999Z,76.90
2022-09-18T15:00:40.100Z,77.10
2022-09-18T15:03:33.726Z,77.00
2022-09-18T15:06:29.081Z,77.60
2022-09-18T15:09:28.659Z,77.80
2022-09-18T15:12:22.427Z,78.90
2022-09-18T15:15:29.270Z,78.50
2022-09-18T15:18:21.591Z,79.70
2022-09-18T15:21:24.237Z,78.60
2022-09-18T15:24:17.595Z,79.60
2022-09-18T15:27:09.927Z,79.70
2022-09-18T15:30:04.954Z,79.20
2022-09-18T15:32:58.611Z,79.70
2022-09-18T15:35:53.461Z,79.80
2022-09-18T15:38:48.059Z,80.30
2022-09-18T15:41:43.702Z,80.30
2022-09-18T15:47:39.329Z,80.70
2022-09-18T15:50:43.543Z,80.80
2022-09-18T15:53:32.903Z,81.00
2022-09-18T15:56:22.226Z,80.40
2022-09-18T15:59:25.381Z,80.70
2022-09-18T16:02:27.640Z,82.20
2022-09-18T16:05:18.673Z,81.50
2022-09-18T16:08:19.552Z,81.20
2022-09-18T16:11:08.994Z,81.10
2022-09-18T16:13:58.635Z,81.10
2022-09-18T16:16:47.961Z,81.10
2022-09-18T16:19:37.577Z,81.30
2022-09-18T16:22:31.092Z,81.60
2022-09-18T16:25:24.733Z,81.90
2022-09-18T16:28:25.010Z,81.80
2022-09-18T16:31:17.233Z,82.20
2022-09-18T16:34:21.919Z,81.70
2022-09-18T16:37:13.625Z,81.80
2022-09-18T16:40:05.061Z,81.70
2022-09-18T16:42:58.359Z,82.00
2022-09-18T16:45:48.986Z,82.00
2022-09-18T16:48:38.511Z,82.20
2022-09-18T16:51:28.058Z,82.20
2022-09-18T16:54:17.459Z,82.40
2022-09-18T16:57:12.947Z,82.40
2022-09-18T17:00:07.038Z,82.90
2022-09-18T17:02:57.646Z,82.40
2022-09-18T17:05:47.389Z,82.00
2022-09-18T17:08:37.105Z,81.80
2022-09-18T17:11:26.562Z,81.80
2022-09-18T17:14:17.490Z,81.70
2022-09-18T17:17:06.911Z,81.80
2022-09-18T17:19:56.416Z,81.60
2022-09-18T17:22:46.120Z,81.70
2022-09-18T17:25:35.476Z,82.00
2022-09-18T17:28:24.826Z,82.10
2022-09-18T17:31:19.135Z,82.10
2022-09-18T17:34:08.675Z,82.40
2022-09-18T17:36:58.122Z,82.10
2022-09-18T17:39:47.717Z,82.30
2022-09-18T17:42:38.087Z,82.80
2022-09-18T17:45:27.549Z,83.20
2022-09-18T17:48:18.233Z,83.40
2022-09-18T17:51:12.013Z,83.80
2022-09-18T17:54:04.659Z,84.30
2022-09-18T17:56:53.996Z,84.70
2022-09-18T17:59:45.117Z,84.80
2022-09-18T18:02:34.574Z,85.10
2022-09-18T18:05:25.354Z,85.10
2022-09-18T18:08:15.018Z,85.50
2022-09-18T18:11:08.322Z,85.30
2022-09-18T18:13:57.832Z,85.60
2022-09-18T18:16:50.796Z,85.20
2022-09-18T18:19:42.715Z,84.80
2022-09-18T18:22:33.615Z,84.40
2022-09-18T18:25:23.115Z,84.30
2022-09-18T18:28:12.579Z,83.90
2022-09-18T18:31:05.905Z,83.90
2022-09-18T18:33:56.825Z,83.90
2022-09-18T18:36:46.361Z,84.10
2022-09-18T18:39:37.103Z,84.20
2022-09-18T18:42:27.091Z,84.50
2022-09-18T18:45:16.901Z,84.30
2022-09-18T18:48:09.715Z,84.30
2022-09-18T18:50:59.561Z,84.30
2022-09-18T18:53:49.018Z,84.30
2022-09-18T18:56:41.447Z,84.40
2022-09-18T18:59:32.127Z,84.70
2022-09-18T19:02:21.516Z,84.70
2022-09-18T19:05:12.671Z,85.00
2022-09-18T19:08:02.249Z,85.30
2022-09-18T19:10:58.000Z,85.30
2022-09-18T19:13:55.823Z,86.40
2022-09-18T19:16:46.088Z,86.80
2022-09-18T19:19:35.597Z,86.70
2022-09-18T19:22:24.977Z,87.00
2022-09-18T19:25:16.434Z,87.10
2022-09-18T19:28:06.389Z,87.20
2022-09-18T19:31:04.116Z,87.30
2022-09-18T19:33:54.317Z,88.30
2022-09-18T19:36:49.961Z,87.50
2022-09-18T19:39:39.375Z,87.40
2022-09-18T19:42:30.028Z,87.20
2022-09-18T19:45:23.961Z,87.40
2022-09-18T19:48:23.201Z,87.90
2022-09-18T19:51:12.625Z,88.50
2022-09-18T19:54:01.955Z,87.40
2022-09-18T19:56:53.007Z,87.30
2022-09-18T19:59:42.563Z,87.00
2022-09-18T20:02:31.903Z,87.00
2022-09-18T20:05:22.681Z,86.80
2022-09-18T20:08:12.691Z,87.20
2022-09-18T20:11:02.436Z,87.20
2022-09-18T20:13:52.813Z,87.20
2022-09-18T20:16:42.172Z,87.40
2022-09-18T20:19:31.573Z,87.50
2022-09-18T20:22:23.434Z,87.60
2022-09-18T20:25:13.296Z,88.00
2022-09-18T20:28:03.283Z,87.80
2022-09-18T20:30:52.644Z,87.90
2022-09-18T20:33:42.097Z,88.10
2022-09-18T20:36:32.277Z,88.20
2022-09-18T20:39:23.147Z,88.60
2022-09-18T20:42:12.500Z,89.20
2022-09-18T20:45:03.286Z,89.80
2022-09-18T20:47:52.595Z,89.70
2022-09-18T20:50:43.251Z,89.70
2022-09-18T20:53:32.545Z,90.00
2022-09-18T20:56:23.299Z,90.10
2022-09-18T20:59:16.027Z,90.30
2022-09-18T21:02:07.749Z,90.20
2022-09-18T21:04:57.749Z,90.20
2022-09-18T21:07:47.826Z,90.40
2022-09-18T21:10:46.648Z,90.50
2022-09-18T21:13:42.572Z,90.50
2022-09-18T21:16:35.208Z,90.70
2022-09-18T21:19:26.178Z,90.80
2022-09-18T21:22:15.637Z,90.70
2022-09-18T21:25:05.391Z,90.80
2022-09-18T21:27:55.577Z,90.90
2022-09-18T21:30:46.429Z,91.10
2022-09-18T21:33:37.374Z,91.40
2022-09-18T21:36:28.253Z,91.20
2022-09-18T21:39:17.606Z,91.40
2022-09-18T21:42:09.551Z,91.40
2022-09-18T21:45:03.244Z,91.60
2022-09-18T21:47:54.046Z,91.60
2022-09-18T21:50:43.362Z,92.00
2022-09-18T21:53:33.647Z,92.00
2022-09-18T21:56:23.093Z,92.30
2022-09-18T21:59:13.054Z,92.50
2022-09-18T22:02:03.224Z,92.80
2022-09-18T22:04:54.171Z,92.90
2022-09-18T22:07:44.336Z,93.10
2022-09-18T22:10:35.265Z,93.00
2022-09-18T22:13:24.593Z,93.10
2022-09-18T22:16:14.205Z,93.20
2022-09-18T22:19:04.016Z,93.30
2022-09-18T22:21:55.029Z,93.90
2022-09-18T22:24:44.623Z,94.20
2022-09-18T22:27:33.939Z,94.30
2022-09-18T22:30:23.280Z,94.70
2022-09-18T22:33:12.672Z,94.60
2022-09-18T22:36:05.511Z,94.80
2022-09-18T22:38:56.723Z,95.10
2022-09-18T22:41:46.470Z,95.30
2022-09-18T22:44:35.769Z,95.30
2022-09-18T22:47:25.558Z,95.50
2022-09-18T22:50:14.857Z,95.70
2022-09-18T22:53:04.167Z,95.80
2022-09-18T22:55:54.786Z,95.80
2022-09-18T22:58:44.729Z,96.10
2022-09-18T23:01:38.201Z,96.00
2022-09-18T23:04:30.028Z,96.30
2022-09-18T23:07:19.342Z,96.10
2022-09-18T23:10:09.986Z,95.90
2022-09-18T23:13:00.598Z,95.90
2022-09-18T23:15:49.920Z,95.90
2022-09-18T23:18:40.025Z,95.70
2022-09-18T23:21:32.157Z,95.90
2022-09-18T23:24:22.703Z,95.90
2022-09-18T23:27:12.017Z,96.00
2022-09-18T23:30:03.113Z,95.90
2022-09-18T23:32:52.452Z,96.00
2022-09-18T23:35:41.790Z,95.80
2022-09-18T23:38:31.086Z,96.00
2022-09-18T23:41:20.382Z,96.10
2022-09-18T23:44:12.584Z,96.20
2022-09-18T23:47:03.601Z,96.60
2022-09-18T23:49:52.963Z,96.70
2022-09-18T23:52:44.514Z,96.50
2022-09-18T23:55:33.837Z,96.60
2022-09-18T23:58:23.150Z,96.60
